createdAt,value
2018-03-04T00:00:50.583Z,59.4
2018-03-04T00:01:39.661Z,59.4
2018-03-04T00:02:30.210Z,59.4
2018-03-04T00:03:19.988Z,59.4
2018-03-04T00:04:09.966Z,59.4
2018-03-04T00:05:00.573Z,59.4
2018-03-04T00:05:50.710Z,59.4
2018-03-04T00:06:40.747Z,59.4
2018-03-04T00:07:30.251Z,59.4
2018-03-04T00:08:20.412Z,59.4
2018-03-04T00:09:11.418Z,59.4
2018-03-04T00:10:00.441Z,59.4
2018-03-04T00:10:51.238Z,59.4
2018-03-04T00:11:40.292Z,59.4
2018-03-04T00:12:30.782Z,59.3
2018-03-04T00:13:21.431Z,59.3
2018-03-04T00:14:11.187Z,59.3
2018-03-04T00:15:00.312Z,59.3
2018-03-04T00:15:50.943Z,59.3
2018-03-04T00:16:41.654Z,59.3
2018-03-04T00:17:31.156Z,59.3
2018-03-04T00:18:21.522Z,59.3
2018-03-04T00:19:11.621Z,59.3
2018-03-04T00:20:01.121Z,59.3
2018-03-04T00:20:51.304Z,59.3
2018-03-04T00:21:41.260Z,59.3
2018-03-04T00:22:31.519Z,59.3
2018-03-04T00:23:21.374Z,59.3
2018-03-04T00:24:11.221Z,59.3
2018-03-04T00:25:01.417Z,59.2
2018-03-04T00:25:51.422Z,59.3
2018-03-04T00:26:41.221Z,59.2
2018-03-04T00:27:31.747Z,59.2
2018-03-04T00:28:21.969Z,59.2
2018-03-04T00:29:13.147Z,59.2
2018-03-04T00:30:02.130Z,59.2
2018-03-04T00:30:51.474Z,59.2
2018-03-04T00:31:42.162Z,59.2
2018-03-04T00:32:32.002Z,59.2
2018-03-04T00:33:21.793Z,59.2
2018-03-04T00:34:12.420Z,59.1
2018-03-04T00:35:02.189Z,59.1
2018-03-04T00:35:52.506Z,59.1
2018-03-04T00:36:42.221Z,59.1
2018-03-04T00:37:32.448Z,59.1
2018-03-04T00:38:22.650Z,59.1
2018-03-04T00:39:12.296Z,59.1
2018-03-04T00:40:02.133Z,59.1
2018-03-04T00:40:53.381Z,59.1
2018-03-04T00:41:41.799Z,59.1
2018-03-04T00:42:32.999Z,59.1
2018-03-04T00:43:23.365Z,59.1
2018-03-04T00:44:12.741Z,59.1
2018-03-04T00:45:02.328Z,59.1
2018-03-04T00:45:52.368Z,59.1
2018-03-04T00:46:42.633Z,59.1
2018-03-04T00:47:34.221Z,59
2018-03-04T00:48:23.051Z,59.1
2018-03-04T00:49:12.700Z,59
2018-03-04T00:50:02.938Z,59
2018-03-04T00:50:53.865Z,59
2018-03-04T00:51:44.241Z,59
2018-03-04T00:52:33.900Z,59
2018-03-04T00:53:24.481Z,59
2018-03-04T00:54:13.567Z,59
2018-03-04T00:55:03.372Z,59
2018-03-04T00:55:54.665Z,59
2018-03-04T00:56:44.759Z,59
2018-03-04T00:57:33.843Z,59
2018-03-04T00:58:24.863Z,58.9
2018-03-04T00:59:14.950Z,58.9
2018-03-04T01:00:04.108Z,58.9
2018-03-04T01:00:53.808Z,58.9
2018-03-04T01:01:44.364Z,58.9
2018-03-04T01:02:34.306Z,58.9
2018-03-04T01:03:24.965Z,58.9
2018-03-04T01:04:14.150Z,58.9
2018-03-04T01:05:04.892Z,58.9
2018-03-04T01:05:54.132Z,58.9
2018-03-04T01:06:44.186Z,58.9
2018-03-04T01:07:34.148Z,58.9
2018-03-04T01:08:24.343Z,58.9
2018-03-04T01:09:14.761Z,58.9
2018-03-04T01:10:04.345Z,58.9
2018-03-04T01:10:54.654Z,58.9
2018-03-04T01:11:45.064Z,58.8
2018-03-04T01:12:35.165Z,58.9
2018-03-04T01:13:24.968Z,58.8
2018-03-04T01:14:14.834Z,58.8
2018-03-04T01:15:05.483Z,58.8
2018-03-04T01:15:55.123Z,58.8
2018-03-04T01:16:45.347Z,58.8
2018-03-04T01:17:35.266Z,58.8
2018-03-04T01:18:24.914Z,58.8
2018-03-04T01:19:15.667Z,58.8
2018-03-04T01:20:05.534Z,58.8
2018-03-04T01:20:55.131Z,58.8
2018-03-04T01:21:45.468Z,58.8
2018-03-04T01:22:35.816Z,58.8
2018-03-04T01:23:25.599Z,58.8
2018-03-04T01:24:15.571Z,58.8
2018-03-04T01:25:05.344Z,58.8
2018-03-04T01:25:56.319Z,58.8
2018-03-04T01:26:46.614Z,58.8
2018-03-04T01:27:35.304Z,58.7
2018-03-04T01:28:25.728Z,58.7
2018-03-04T01:29:15.321Z,58.7
2018-03-04T01:30:06.793Z,58.7
2018-03-04T01:30:56.129Z,58.7
2018-03-04T01:31:46.343Z,58.7
2018-03-04T01:32:36.520Z,58.7
2018-03-04T01:33:26.351Z,58.7
2018-03-04T01:34:16.846Z,58.7
2018-03-04T01:35:06.392Z,58.6
2018-03-04T01:35:56.657Z,58.7
2018-03-04T01:36:46.760Z,58.6
2018-03-04T01:37:36.709Z,58.6
2018-03-04T01:38:26.327Z,58.6
2018-03-04T01:39:16.186Z,58.6
2018-03-04T01:40:06.529Z,58.6
2018-03-04T01:40:57.364Z,58.6
2018-03-04T01:41:47.940Z,58.6
2018-03-04T01:42:35.765Z,58.6
2018-03-04T01:43:26.493Z,58.6
2018-03-04T01:44:17.611Z,-97
2018-03-04T01:45:06.295Z,-97
2018-03-04T01:45:57.631Z,-97
2018-03-04T01:46:47.555Z,-97
2018-03-04T01:47:38.123Z,-97
2018-03-04T01:48:28.072Z,-97
2018-03-04T01:49:16.806Z,-97
2018-03-04T01:50:07.354Z,-97
2018-03-04T01:50:56.799Z,58.5
2018-03-04T01:51:47.797Z,58.5
2018-03-04T01:52:37.617Z,58.5
2018-03-04T01:53:28.500Z,58.5
2018-03-04T01:54:17.643Z,58.5
2018-03-04T01:55:08.364Z,58.5
2018-03-04T01:55:57.674Z,58.5
2018-03-04T01:56:48.126Z,58.5
2018-03-04T01:57:37.906Z,58.5
2018-03-04T01:58:28.356Z,58.5
2018-03-04T01:59:18.601Z,58.4
2018-03-04T02:00:07.603Z,58.5
2018-03-04T02:00:58.116Z,58.4
2018-03-04T02:01:48.822Z,58.4
2018-03-04T02:02:38.796Z,58.4
2018-03-04T02:03:28.846Z,58.4
2018-03-04T02:04:19.017Z,58.4
2018-03-04T02:05:08.386Z,58.4
2018-03-04T02:05:59.610Z,58.4
2018-03-04T02:06:47.673Z,58.4
2018-03-04T02:07:39.078Z,58.4
2018-03-04T02:08:29.028Z,58.4
2018-03-04T02:09:18.556Z,58.4
2018-03-04T02:10:09.067Z,-97
2018-03-04T02:10:59.355Z,58.6
2018-03-04T02:11:49.255Z,58.8
2018-03-04T02:12:38.626Z,58.9
2018-03-04T02:13:28.886Z,59
2018-03-04T02:14:19.131Z,59.2
2018-03-04T02:15:08.919Z,59.4
2018-03-04T02:15:59.661Z,59.4
2018-03-04T02:16:49.608Z,59.8
2018-03-04T02:17:39.875Z,59.9
2018-03-04T02:18:29.355Z,60
2018-03-04T02:19:19.655Z,60.1
2018-03-04T02:20:09.453Z,60.3
2018-03-04T02:20:59.325Z,60.5
2018-03-04T02:21:50.280Z,60.8
2018-03-04T02:22:40.042Z,60.9
2018-03-04T02:23:29.217Z,61.1
2018-03-04T02:24:20.169Z,61.2
2018-03-04T02:25:09.741Z,61.4
2018-03-04T02:26:00.045Z,61.6
2018-03-04T02:26:50.060Z,61.6
2018-03-04T02:27:39.398Z,61.8
2018-03-04T02:28:30.819Z,61.9
2018-03-04T02:29:19.340Z,61.9
2018-03-04T02:30:10.999Z,61.9
2018-03-04T02:31:00.144Z,61.9
2018-03-04T02:31:50.949Z,62
2018-03-04T02:32:39.959Z,62
2018-03-04T02:33:29.997Z,62
2018-03-04T02:34:21.052Z,62
2018-03-04T02:35:11.291Z,62
2018-03-04T02:36:00.612Z,62.1
2018-03-04T02:36:51.253Z,62.2
2018-03-04T02:37:41.490Z,62.3
2018-03-04T02:38:30.768Z,62.4
2018-03-04T02:39:20.921Z,62.6
2018-03-04T02:40:10.681Z,62.6
2018-03-04T02:41:00.853Z,62.6
2018-03-04T02:41:51.887Z,62.6
2018-03-04T02:42:40.643Z,62.6
2018-03-04T02:43:31.564Z,62.7
2018-03-04T02:44:21.750Z,62.7
2018-03-04T02:45:10.091Z,62.7
2018-03-04T02:46:01.203Z,62.6
2018-03-04T02:46:52.261Z,62.7
2018-03-04T02:47:41.467Z,62.7
2018-03-04T02:48:32.052Z,62.6
2018-03-04T02:49:22.410Z,62.7
2018-03-04T02:50:11.632Z,62.8
2018-03-04T02:51:01.959Z,62.8
2018-03-04T02:51:52.888Z,62.8
2018-03-04T02:52:41.296Z,62.9
2018-03-04T02:53:32.115Z,62.9
2018-03-04T02:54:21.778Z,62.9
2018-03-04T02:55:11.529Z,62.9
2018-03-04T02:56:02.115Z,62.9
2018-03-04T02:56:52.601Z,62.9
2018-03-04T02:57:41.984Z,62.9
2018-03-04T02:58:32.888Z,63
2018-03-04T02:59:23.420Z,63.1
2018-03-04T03:00:13.233Z,63.1
2018-03-04T03:01:02.931Z,63.1
2018-03-04T03:01:52.406Z,63.1
2018-03-04T03:02:42.664Z,63.1
2018-03-04T03:03:33.027Z,63.1
2018-03-04T03:04:23.469Z,63.1
2018-03-04T03:05:12.624Z,63.1
2018-03-04T03:06:03.265Z,63.1
2018-03-04T03:06:52.629Z,63.1
2018-03-04T03:07:43.434Z,63.3
2018-03-04T03:08:32.857Z,63.3
2018-03-04T03:09:23.782Z,63.3
2018-03-04T03:10:13.325Z,63.3
2018-03-04T03:11:03.358Z,63.3
2018-03-04T03:11:53.472Z,63.3
2018-03-04T03:12:43.814Z,63.3
2018-03-04T03:13:33.602Z,63.3
2018-03-04T03:14:23.620Z,63.3
2018-03-04T03:15:13.927Z,63.3
2018-03-04T03:16:03.920Z,63.3
2018-03-04T03:16:54.131Z,63.3
2018-03-04T03:17:44.381Z,63.3
2018-03-04T03:18:33.959Z,63.3
2018-03-04T03:19:23.436Z,63.4
2018-03-04T03:20:14.114Z,63.4
2018-03-04T03:21:04.398Z,63.4
2018-03-04T03:21:54.199Z,63.4
2018-03-04T03:22:43.342Z,63.4
2018-03-04T03:23:33.989Z,63.4
2018-03-04T03:24:25.129Z,63.4
2018-03-04T03:25:14.002Z,63.4
2018-03-04T03:26:03.834Z,63.4
2018-03-04T03:26:54.334Z,63.4
2018-03-04T03:27:44.478Z,63.4
2018-03-04T03:28:35.201Z,63.4
2018-03-04T03:29:24.376Z,63.4
2018-03-04T03:30:15.300Z,63.4
2018-03-04T03:31:04.928Z,63.4
2018-03-04T03:31:54.507Z,63.4
2018-03-04T03:32:45.101Z,63.4
2018-03-04T03:33:35.100Z,63.4
2018-03-04T03:34:24.768Z,63.4
2018-03-04T03:35:14.641Z,63.4
2018-03-04T03:36:04.896Z,63.4
2018-03-04T03:36:55.230Z,63.4
2018-03-04T03:37:44.635Z,63.4
2018-03-04T03:38:35.330Z,63.4
2018-03-04T03:39:25.320Z,63.4
2018-03-04T03:40:15.743Z,63.3
2018-03-04T03:41:05.686Z,63.3
2018-03-04T03:41:55.560Z,63.4
2018-03-04T03:42:45.016Z,63.3
2018-03-04T03:43:36.145Z,63.3
2018-03-04T03:44:25.572Z,63.3
2018-03-04T03:45:15.991Z,63.3
2018-03-04T03:46:05.012Z,63.3
2018-03-04T03:46:54.539Z,63.3
2018-03-04T03:47:46.703Z,63.3
2018-03-04T03:48:35.535Z,63.3
2018-03-04T03:49:26.632Z,63.3
2018-03-04T03:50:16.448Z,63.3
2018-03-04T03:51:06.517Z,63.3
2018-03-04T03:51:56.193Z,63.3
2018-03-04T03:52:46.080Z,63.3
2018-03-04T03:53:36.005Z,63.3
2018-03-04T03:54:25.957Z,63.3
2018-03-04T03:55:16.429Z,63.3
2018-03-04T03:56:07.041Z,63.3
2018-03-04T03:56:57.460Z,63.3
2018-03-04T03:57:46.320Z,63.3
2018-03-04T03:58:36.967Z,63.3
2018-03-04T03:59:26.487Z,63.2
2018-03-04T04:00:17.157Z,63.2
2018-03-04T04:01:06.807Z,63.2
2018-03-04T04:01:56.658Z,63.2
2018-03-04T04:02:47.325Z,63.2
2018-03-04T04:03:37.474Z,63.2
2018-03-04T04:04:26.476Z,63.2
2018-03-04T04:05:16.798Z,63.2
2018-03-04T04:06:07.046Z,63.2
2018-03-04T04:06:57.924Z,63.2
2018-03-04T04:07:47.863Z,63.2
2018-03-04T04:08:35.292Z,63.1
2018-03-04T04:09:27.415Z,63.1
2018-03-04T04:10:16.314Z,63.1
2018-03-04T04:11:06.841Z,63.1
2018-03-04T04:11:57.669Z,63.1
2018-03-04T04:12:47.946Z,63.1
2018-03-04T04:13:37.721Z,63.1
2018-03-04T04:14:27.348Z,63.1
2018-03-04T04:15:17.381Z,63.1
2018-03-04T04:16:07.404Z,63.1
2018-03-04T04:16:58.109Z,63.1
2018-03-04T04:17:48.346Z,63.1
2018-03-04T04:18:37.566Z,63.1
2018-03-04T04:19:28.384Z,63.1
2018-03-04T04:20:17.474Z,63.1
2018-03-04T04:21:07.817Z,63.1
2018-03-04T04:21:58.116Z,63.1
2018-03-04T04:22:47.968Z,63
2018-03-04T04:23:38.783Z,63.1
2018-03-04T04:24:28.814Z,63.1
2018-03-04T04:25:32.931Z,63
2018-03-04T04:26:08.671Z,63
2018-03-04T04:26:58.654Z,63
2018-03-04T04:27:49.237Z,63
2018-03-04T04:28:39.026Z,63
2018-03-04T04:29:29.632Z,63
2018-03-04T04:30:19.453Z,63
2018-03-04T04:31:09.541Z,63
2018-03-04T04:31:59.527Z,62.9
2018-03-04T04:32:49.590Z,62.9
2018-03-04T04:33:39.104Z,62.9
2018-03-04T04:34:29.990Z,62.9
2018-03-04T04:35:19.781Z,62.9
2018-03-04T04:36:10.437Z,62.9
2018-03-04T04:36:59.870Z,62.9
2018-03-04T04:37:50.489Z,62.9
2018-03-04T04:38:40.258Z,62.9
2018-03-04T04:39:29.543Z,62.9
2018-03-04T04:40:19.190Z,62.9
2018-03-04T04:41:10.169Z,62.9
2018-03-04T04:42:00.381Z,62.9
2018-03-04T04:42:50.345Z,62.9
2018-03-04T04:43:39.201Z,62.9
2018-03-04T04:44:29.922Z,62.9
2018-03-04T04:45:19.952Z,62.9
2018-03-04T04:46:09.799Z,62.9
2018-03-04T04:46:58.781Z,62.9
2018-03-04T04:47:50.368Z,62.8
2018-03-04T04:48:39.684Z,62.8
2018-03-04T04:49:29.917Z,62.8
2018-03-04T04:50:19.772Z,62.8
2018-03-04T04:51:10.210Z,62.8
2018-03-04T04:52:00.107Z,62.8
2018-03-04T04:52:50.489Z,62.8
2018-03-04T04:53:39.817Z,62.8
2018-03-04T04:54:30.060Z,62.8
2018-03-04T04:55:19.837Z,62.8
2018-03-04T04:56:10.699Z,62.8
2018-03-04T04:57:00.336Z,62.8
2018-03-04T04:57:50.856Z,62.8
2018-03-04T04:58:40.777Z,62.8
2018-03-04T04:59:31.004Z,62.8
2018-03-04T05:00:20.501Z,62.8
2018-03-04T05:01:11.470Z,62.8
2018-03-04T05:02:00.134Z,62.8
2018-03-04T05:02:50.469Z,62.7
2018-03-04T05:03:38.383Z,62.7
2018-03-04T05:04:31.336Z,62.7
2018-03-04T05:05:21.338Z,62.7
2018-03-04T05:06:11.119Z,62.7
2018-03-04T05:07:01.269Z,62.7
2018-03-04T05:07:51.691Z,62.7
2018-03-04T05:08:42.212Z,62.7
2018-03-04T05:09:32.199Z,62.7
2018-03-04T05:10:21.966Z,62.7
2018-03-04T05:11:12.314Z,62.6
2018-03-04T05:12:02.099Z,62.6
2018-03-04T05:12:52.150Z,62.6
2018-03-04T05:13:42.099Z,62.6
2018-03-04T05:14:31.772Z,62.6
2018-03-04T05:15:21.775Z,62.6
2018-03-04T05:16:11.979Z,62.6
2018-03-04T05:17:01.856Z,62.6
2018-03-04T05:17:52.178Z,62.6
2018-03-04T05:18:41.595Z,62.6
2018-03-04T05:19:32.966Z,62.6
2018-03-04T05:20:22.917Z,62.6
2018-03-04T05:21:12.439Z,62.6
2018-03-04T05:22:02.488Z,62.6
2018-03-04T05:22:51.804Z,62.6
2018-03-04T05:23:41.640Z,62.6
2018-03-04T05:24:31.782Z,62.5
2018-03-04T05:25:22.620Z,62.6
2018-03-04T05:26:13.092Z,62.5
2018-03-04T05:27:02.668Z,62.5
2018-03-04T05:27:51.923Z,62.5
2018-03-04T05:28:42.860Z,62.5
2018-03-04T05:29:32.625Z,62.5
2018-03-04T05:30:23.092Z,62.5
2018-03-04T05:31:13.551Z,62.5
2018-03-04T05:32:02.935Z,62.5
2018-03-04T05:32:53.719Z,62.4
2018-03-04T05:33:42.797Z,62.5
2018-03-04T05:34:33.587Z,62.4
2018-03-04T05:35:23.724Z,62.4
2018-03-04T05:36:13.379Z,62.4
2018-03-04T05:37:03.603Z,62.4
2018-03-04T05:37:53.138Z,62.4
2018-03-04T05:38:44.286Z,62.4
2018-03-04T05:39:33.322Z,62.4
2018-03-04T05:40:23.881Z,62.4
2018-03-04T05:41:13.340Z,62.4
2018-03-04T05:42:04.256Z,62.4
2018-03-04T05:42:53.725Z,62.4
2018-03-04T05:43:44.877Z,62.4
2018-03-04T05:44:34.193Z,62.4
2018-03-04T05:45:24.504Z,62.4
2018-03-04T05:46:13.897Z,62.4
2018-03-04T05:47:04.108Z,62.3
2018-03-04T05:47:54.965Z,62.3
2018-03-04T05:48:44.920Z,62.3
2018-03-04T05:49:34.778Z,62.3
2018-03-04T05:50:23.561Z,62.3
2018-03-04T05:51:14.841Z,62.3
2018-03-04T05:52:04.218Z,62.3
2018-03-04T05:52:54.133Z,62.3
2018-03-04T05:53:44.145Z,62.3
2018-03-04T05:54:34.578Z,62.3
2018-03-04T05:55:24.616Z,62.3
2018-03-04T05:56:14.614Z,62.3
2018-03-04T05:57:04.360Z,62.3
2018-03-04T05:57:53.831Z,62.3
2018-03-04T05:58:44.558Z,62.3
2018-03-04T05:59:35.508Z,62.3
2018-03-04T06:00:25.000Z,62.3
2018-03-04T06:01:15.359Z,62.2
2018-03-04T06:02:05.491Z,62.2
2018-03-04T06:02:54.778Z,62.2
2018-03-04T06:03:44.345Z,62.2
2018-03-04T06:04:35.300Z,62.2
2018-03-04T06:05:25.782Z,62.2
2018-03-04T06:06:15.119Z,62.2
2018-03-04T06:07:05.145Z,62.2
2018-03-04T06:07:55.884Z,62.2
2018-03-04T06:08:45.747Z,62.2
2018-03-04T06:09:35.427Z,62.1
2018-03-04T06:10:24.837Z,62.1
2018-03-04T06:11:15.561Z,62.1
2018-03-04T06:12:06.564Z,62.1
2018-03-04T06:12:56.652Z,62.1
2018-03-04T06:13:46.669Z,62.1
2018-03-04T06:14:37.060Z,62.1
2018-03-04T06:15:26.762Z,62.1
2018-03-04T06:16:16.867Z,62.1
2018-03-04T06:17:06.714Z,62.1
2018-03-04T06:17:56.992Z,62.1
2018-03-04T06:18:47.311Z,62.1
2018-03-04T06:19:37.075Z,62.1
2018-03-04T06:20:27.747Z,62.1
2018-03-04T06:21:17.752Z,62.1
2018-03-04T06:22:07.022Z,62.1
2018-03-04T06:22:57.591Z,62
2018-03-04T06:23:46.784Z,62
2018-03-04T06:24:37.462Z,62
2018-03-04T06:25:27.789Z,62
2018-03-04T06:26:17.862Z,62
2018-03-04T06:27:07.913Z,62
2018-03-04T06:27:57.409Z,62
2018-03-04T06:28:47.721Z,62
2018-03-04T06:29:37.462Z,62
2018-03-04T06:30:27.540Z,62
2018-03-04T06:31:18.172Z,61.9
2018-03-04T06:32:07.539Z,61.9
2018-03-04T06:32:57.278Z,61.9
2018-03-04T06:33:47.708Z,61.9
2018-03-04T06:34:36.783Z,61.9
2018-03-04T06:35:26.931Z,61.9
2018-03-04T06:36:17.981Z,61.9
2018-03-04T06:37:08.013Z,61.9
2018-03-04T06:37:57.243Z,61.9
2018-03-04T06:38:47.595Z,61.9
2018-03-04T06:39:38.875Z,61.9
2018-03-04T06:40:27.893Z,61.9
2018-03-04T06:41:17.763Z,61.9
2018-03-04T06:42:08.578Z,61.9
2018-03-04T06:42:58.330Z,61.9
2018-03-04T06:43:47.319Z,61.9
2018-03-04T06:44:38.322Z,61.9
2018-03-04T06:45:28.224Z,61.8
2018-03-04T06:46:18.967Z,61.8
2018-03-04T06:47:08.819Z,61.8
2018-03-04T06:47:57.828Z,61.9
2018-03-04T06:48:48.250Z,61.8
2018-03-04T06:49:38.140Z,61.8
2018-03-04T06:50:28.833Z,61.8
2018-03-04T06:51:18.171Z,61.8
2018-03-04T06:52:08.297Z,61.8
2018-03-04T06:52:58.449Z,61.8
2018-03-04T06:53:48.230Z,61.8
2018-03-04T06:54:39.258Z,61.8
2018-03-04T06:55:28.641Z,61.8
2018-03-04T06:56:18.707Z,61.8
2018-03-04T06:57:09.167Z,61.8
2018-03-04T06:57:58.923Z,61.8
2018-03-04T06:58:48.608Z,61.8
2018-03-04T06:59:39.244Z,61.8
2018-03-04T07:00:29.802Z,61.7
2018-03-04T07:01:19.472Z,61.7
2018-03-04T07:02:09.304Z,61.7
2018-03-04T07:02:59.549Z,61.7
2018-03-04T07:03:50.004Z,61.7
2018-03-04T07:04:39.056Z,61.7
2018-03-04T07:05:29.866Z,61.7
2018-03-04T07:06:19.902Z,61.7
2018-03-04T07:07:09.766Z,61.7
2018-03-04T07:07:59.629Z,61.6
2018-03-04T07:08:49.646Z,61.6
2018-03-04T07:09:40.446Z,61.6
2018-03-04T07:10:30.347Z,61.6
2018-03-04T07:11:19.837Z,61.6
2018-03-04T07:12:09.704Z,61.6
2018-03-04T07:13:00.478Z,61.6
2018-03-04T07:13:50.096Z,61.6
2018-03-04T07:14:39.473Z,61.6
2018-03-04T07:15:30.727Z,61.6
2018-03-04T07:16:21.193Z,61.6
2018-03-04T07:17:10.518Z,61.6
2018-03-04T07:18:00.820Z,61.6
2018-03-04T07:18:49.451Z,61.6
2018-03-04T07:19:40.702Z,61.6
2018-03-04T07:20:30.090Z,61.6
2018-03-04T07:21:20.148Z,61.5
2018-03-04T07:22:11.175Z,61.5
2018-03-04T07:23:01.040Z,61.5
2018-03-04T07:23:51.022Z,61.5
2018-03-04T07:24:41.161Z,61.5
2018-03-04T07:25:31.040Z,61.5
2018-03-04T07:26:21.213Z,61.5
2018-03-04T07:27:10.665Z,61.5
2018-03-04T07:28:02.040Z,61.4
2018-03-04T07:28:50.887Z,61.4
2018-03-04T07:29:41.462Z,61.4
2018-03-04T07:30:31.891Z,61.4
2018-03-04T07:31:21.270Z,61.4
2018-03-04T07:32:12.032Z,61.4
2018-03-04T07:33:01.627Z,61.4
2018-03-04T07:33:51.304Z,61.4
2018-03-04T07:34:41.338Z,61.4
2018-03-04T07:35:32.444Z,61.4
2018-03-04T07:36:21.582Z,61.4
2018-03-04T07:37:11.658Z,61.4
2018-03-04T07:38:01.388Z,61.4
2018-03-04T07:38:52.031Z,61.4
2018-03-04T07:39:42.704Z,61.4
2018-03-04T07:40:31.488Z,61.4
2018-03-04T07:41:21.837Z,61.4
2018-03-04T07:42:11.810Z,61.4
2018-03-04T07:43:02.018Z,61.4
2018-03-04T07:43:52.019Z,61.3
2018-03-04T07:44:42.574Z,61.3
2018-03-04T07:45:31.346Z,61.3
2018-03-04T07:46:23.003Z,61.3
2018-03-04T07:47:12.337Z,61.3
2018-03-04T07:48:02.154Z,61.3
2018-03-04T07:48:53.151Z,61.3
2018-03-04T07:49:42.633Z,61.3
2018-03-04T07:50:33.186Z,61.3
2018-03-04T07:51:22.504Z,61.3
2018-03-04T07:52:12.703Z,61.3
2018-03-04T07:53:02.184Z,61.3
2018-03-04T07:53:53.779Z,61.3
2018-03-04T07:54:43.243Z,61.3
2018-03-04T07:55:32.933Z,61.3
2018-03-04T07:56:23.573Z,61.3
2018-03-04T07:57:13.166Z,61.3
2018-03-04T07:58:03.602Z,61.2
2018-03-04T07:58:53.265Z,61.2
2018-03-04T07:59:43.686Z,61.2
2018-03-04T08:00:33.984Z,61.2
2018-03-04T08:01:22.715Z,61.2
2018-03-04T08:02:13.782Z,61.2
2018-03-04T08:03:03.011Z,61.2
2018-03-04T08:03:54.008Z,61.2
2018-03-04T08:04:43.876Z,61.1
2018-03-04T08:05:33.668Z,61.1
2018-03-04T08:06:23.973Z,61.1
2018-03-04T08:07:13.728Z,61.1
2018-03-04T08:08:03.220Z,61.1
2018-03-04T08:08:54.441Z,61.1
2018-03-04T08:09:43.545Z,61.1
2018-03-04T08:10:33.795Z,61.1
2018-03-04T08:11:24.536Z,61.1
2018-03-04T08:12:14.308Z,61.1
2018-03-04T08:13:04.823Z,61.1
2018-03-04T08:13:54.811Z,61.1
2018-03-04T08:14:44.780Z,61.1
2018-03-04T08:15:34.452Z,61.1
2018-03-04T08:16:24.297Z,61.1
2018-03-04T08:17:15.127Z,61.1
2018-03-04T08:18:03.933Z,61.1
2018-03-04T08:18:55.248Z,61.1
2018-03-04T08:19:44.665Z,61
2018-03-04T08:20:34.397Z,61
2018-03-04T08:21:25.234Z,61
2018-03-04T08:22:14.629Z,61
2018-03-04T08:23:04.944Z,61
2018-03-04T08:23:55.437Z,61
2018-03-04T08:24:45.662Z,61
2018-03-04T08:25:35.319Z,61
2018-03-04T08:26:25.954Z,61
2018-03-04T08:27:16.632Z,60.9
2018-03-04T08:28:05.317Z,60.9
2018-03-04T08:28:55.549Z,60.9
2018-03-04T08:29:44.717Z,60.9
2018-03-04T08:30:35.790Z,60.9
2018-03-04T08:31:25.567Z,60.9
2018-03-04T08:32:15.685Z,60.9
2018-03-04T08:33:04.575Z,60.9
2018-03-04T08:33:56.185Z,60.9
2018-03-04T08:34:46.104Z,60.9
2018-03-04T08:35:36.204Z,60.9
2018-03-04T08:36:25.909Z,60.9
2018-03-04T08:37:16.584Z,60.9
2018-03-04T08:38:06.556Z,60.9
2018-03-04T08:38:56.393Z,60.9
2018-03-04T08:39:45.944Z,60.9
2018-03-04T08:40:36.654Z,60.9
2018-03-04T08:41:25.942Z,60.9
2018-03-04T08:42:16.661Z,60.9
2018-03-04T08:43:05.554Z,60.8
2018-03-04T08:43:55.986Z,60.8
2018-03-04T08:44:46.666Z,60.8
2018-03-04T08:45:37.443Z,60.8
2018-03-04T08:46:26.503Z,60.8
2018-03-04T08:47:16.273Z,60.8
2018-03-04T08:48:06.950Z,60.8
2018-03-04T08:48:56.668Z,60.8
2018-03-04T08:49:46.839Z,60.8
2018-03-04T08:50:37.055Z,60.8
2018-03-04T08:51:26.663Z,60.8
2018-03-04T08:52:15.729Z,60.8
2018-03-04T08:53:06.343Z,60.8
2018-03-04T08:53:57.203Z,60.8
2018-03-04T08:54:47.348Z,60.7
2018-03-04T08:55:37.228Z,60.8
2018-03-04T08:56:28.052Z,60.7
2018-03-04T08:57:18.406Z,60.7
2018-03-04T08:58:07.495Z,60.7
2018-03-04T08:58:57.743Z,60.7
2018-03-04T08:59:46.851Z,60.7
2018-03-04T09:00:37.011Z,60.7
2018-03-04T09:01:27.537Z,60.7
2018-03-04T09:02:17.772Z,60.6
2018-03-04T09:03:08.066Z,60.6
2018-03-04T09:03:58.811Z,60.6
2018-03-04T09:04:48.705Z,60.6
2018-03-04T09:05:38.605Z,60.6
2018-03-04T09:06:27.494Z,60.6
2018-03-04T09:07:17.339Z,60.6
2018-03-04T09:08:08.015Z,60.6
2018-03-04T09:08:58.664Z,60.6
2018-03-04T09:09:48.317Z,60.6
2018-03-04T09:10:38.202Z,60.6
2018-03-04T09:11:28.515Z,60.6
2018-03-04T09:12:18.755Z,60.6
2018-03-04T09:13:09.066Z,60.6
2018-03-04T09:13:58.825Z,60.6
2018-03-04T09:14:49.531Z,60.6
2018-03-04T09:15:38.951Z,60.6
2018-03-04T09:16:28.789Z,60.6
2018-03-04T09:17:18.975Z,60.6
2018-03-04T09:18:09.378Z,60.5
2018-03-04T09:18:58.958Z,60.5
2018-03-04T09:19:49.232Z,60.5
2018-03-04T09:20:38.891Z,60.5
2018-03-04T09:21:30.191Z,60.5
2018-03-04T09:22:19.298Z,60.5
2018-03-04T09:23:09.189Z,60.5
2018-03-04T09:23:58.925Z,60.4
2018-03-04T09:24:49.396Z,60.4
2018-03-04T09:25:39.162Z,60.4
2018-03-04T09:26:29.833Z,60.4
2018-03-04T09:27:19.138Z,60.4
2018-03-04T09:28:09.331Z,60.4
2018-03-04T09:28:59.613Z,60.4
2018-03-04T09:29:49.588Z,60.4
2018-03-04T09:30:40.288Z,60.4
2018-03-04T09:31:30.244Z,60.4
2018-03-04T09:32:20.258Z,60.4
2018-03-04T09:33:09.615Z,60.4
2018-03-04T09:33:59.651Z,60.4
2018-03-04T09:34:49.663Z,60.4
2018-03-04T09:35:40.274Z,60.4
2018-03-04T09:36:30.660Z,60.3
2018-03-04T09:37:21.005Z,60.3
2018-03-04T09:38:11.321Z,60.3
2018-03-04T09:39:00.268Z,60.3
2018-03-04T09:39:50.556Z,60.3
2018-03-04T09:40:40.608Z,60.3
2018-03-04T09:41:30.613Z,60.3
2018-03-04T09:42:20.418Z,60.3
2018-03-04T09:43:10.478Z,60.3
2018-03-04T09:44:00.712Z,60.3
2018-03-04T09:44:50.705Z,60.3
2018-03-04T09:45:41.791Z,60.3
2018-03-04T09:46:31.137Z,60.3
2018-03-04T09:47:20.767Z,60.3
2018-03-04T09:48:10.676Z,60.3
2018-03-04T09:49:00.732Z,60.3
2018-03-04T09:49:51.604Z,60.3
2018-03-04T09:50:41.955Z,60.2
2018-03-04T09:51:31.707Z,60.2
2018-03-04T09:52:21.498Z,60.2
2018-03-04T09:53:11.490Z,60.2
2018-03-04T09:54:01.134Z,60.2
2018-03-04T09:54:51.193Z,60.2
2018-03-04T09:55:41.028Z,60.2
2018-03-04T09:56:31.695Z,60.2
2018-03-04T09:57:22.126Z,60.2
2018-03-04T09:58:11.808Z,60.1
2018-03-04T09:59:01.474Z,60.1
2018-03-04T09:59:51.949Z,60.1
2018-03-04T10:00:41.109Z,60.1
2018-03-04T10:01:32.076Z,60.1
2018-03-04T10:02:22.317Z,60.1
2018-03-04T10:03:11.176Z,60.1
2018-03-04T10:04:02.442Z,60.1
2018-03-04T10:04:52.629Z,60.1
2018-03-04T10:05:42.669Z,60.1
2018-03-04T10:06:32.200Z,60.1
2018-03-04T10:07:23.134Z,60.1
2018-03-04T10:08:12.628Z,60.1
2018-03-04T10:09:01.879Z,60.1
2018-03-04T10:09:51.873Z,60.1
2018-03-04T10:10:42.974Z,60.1
2018-03-04T10:11:33.066Z,60.1
2018-03-04T10:12:22.963Z,60.1
2018-03-04T10:13:12.292Z,60.1
2018-03-04T10:14:02.318Z,60
2018-03-04T10:14:53.000Z,60
2018-03-04T10:15:41.920Z,60
2018-03-04T10:16:33.407Z,60
2018-03-04T10:17:22.885Z,60
2018-03-04T10:18:12.823Z,60
2018-03-04T10:19:03.708Z,59.9
2018-03-04T10:19:53.046Z,59.9
2018-03-04T10:20:42.950Z,59.9
2018-03-04T10:21:33.463Z,59.9
2018-03-04T10:22:22.869Z,59.9
2018-03-04T10:23:13.203Z,59.9
2018-03-04T10:24:02.926Z,59.9
2018-03-04T10:24:53.575Z,59.9
2018-03-04T10:25:43.172Z,59.9
2018-03-04T10:26:34.744Z,59.9
2018-03-04T10:27:23.953Z,59.9
2018-03-04T10:28:14.202Z,59.9
2018-03-04T10:29:03.720Z,59.9
2018-03-04T10:29:52.675Z,59.9
2018-03-04T10:30:44.397Z,59.9
2018-03-04T10:31:34.165Z,59.9
2018-03-04T10:32:23.369Z,59.9
2018-03-04T10:33:14.095Z,59.9
2018-03-04T10:34:05.232Z,59.9
2018-03-04T10:34:54.969Z,59.9
2018-03-04T10:35:45.575Z,59.8
2018-03-04T10:36:35.042Z,59.8
2018-03-04T10:37:25.435Z,59.8
2018-03-04T10:38:15.177Z,59.8
2018-03-04T10:39:04.972Z,59.8
2018-03-04T10:39:55.862Z,59.8
2018-03-04T10:40:45.314Z,59.8
2018-03-04T10:41:35.977Z,59.8
2018-03-04T10:42:25.718Z,59.8
2018-03-04T10:43:16.102Z,59.8
2018-03-04T10:44:06.197Z,59.8
2018-03-04T10:44:55.672Z,59.8
2018-03-04T10:45:45.993Z,59.8
2018-03-04T10:46:36.329Z,59.8
2018-03-04T10:47:26.419Z,59.8
2018-03-04T10:48:16.481Z,59.8
2018-03-04T10:49:04.916Z,59.7
2018-03-04T10:49:55.187Z,59.8
2018-03-04T10:50:45.674Z,59.7
2018-03-04T10:51:35.852Z,59.7
2018-03-04T10:52:25.970Z,59.7
2018-03-04T10:53:15.795Z,59.7
2018-03-04T10:54:05.243Z,59.7
2018-03-04T10:54:56.222Z,59.7
2018-03-04T10:55:45.687Z,59.7
2018-03-04T10:56:34.444Z,59.6
2018-03-04T10:57:24.831Z,59.6
2018-03-04T10:58:16.599Z,59.6
2018-03-04T10:59:06.450Z,59.6
2018-03-04T10:59:56.220Z,59.6
2018-03-04T11:00:46.649Z,59.6
2018-03-04T11:01:36.847Z,59.6
2018-03-04T11:02:25.736Z,59.6
2018-03-04T11:03:15.840Z,59.6
2018-03-04T11:04:06.153Z,59.6
2018-03-04T11:04:55.961Z,59.6
2018-03-04T11:05:46.098Z,59.6
2018-03-04T11:06:37.020Z,59.6
2018-03-04T11:07:26.321Z,59.6
2018-03-04T11:08:16.845Z,59.6
2018-03-04T11:09:06.013Z,59.6
2018-03-04T11:09:56.316Z,59.6